Weather observations for the past three days for
Milledgeville, Baldwin County Airport
Imperial (Metric)
Date Time (edt) Wind (mph) Vis. (mi.) Weather Sky Cond. Temperature (ºF) Relative Humidity Wind Chill (°F) Heat Index (°F) Pressure Precipitation (in)
Air Dwpt 6 hour altimeter (in) sea level (mb) 1 hr 3 hr 6 hr
Max. Min.
04 10:35 Calm 8.00 Fair CLR 68 50 53% 30.07 0.0
04 10:15 Calm 10.00 Fair CLR 66.2 50 56% 30.07 0.0
04 09:55 Calm 10.00 Fair CLR 62.6 51.8 68% 30.08 0.0
04 09:35 Calm 10.00 Fair CLR 60.8 53.6 77% 30.08 0.0
04 09:15 Calm 10.00 Fair CLR 59 51.8 77% 30.08 0.0
04 08:55 Calm 10.00 Fair CLR 57.2 50 77% 30.08 0.0
04 08:35 Calm 10.00 Fair CLR 55.4 50 82% 30.08 0.0
04 07:55 Calm 10.00 Fair CLR 50 48.2 94% 30.07 0.0
04 07:35 Calm 10.00 Fair CLR 48.2 46.4 94% 30.07 0.0
04 07:15 Calm 10.00 Fair CLR 48.2 46.4 94% 30.06 0.0
04 06:55 Calm 10.00 Fair CLR 46.4 44.6 93% 30.06 0.0
04 06:35 Calm 10.00 Fair CLR 46.4 46.4 100% 30.06 0.0
04 06:15 Calm 10.00 Fair CLR 48.2 46.4 94% 30.06 0.0
04 05:55 Calm 10.00 Fair CLR 48.2 46.4 94% 30.06 0.0
04 05:35 Calm 10.00 Fair CLR 46.4 44.6 93% 30.06 0.0
04 05:15 W 6 10.00 Fair CLR 48.2 44.6 87% 46 30.06 0.0
04 04:55 Calm 10.00 Fair CLR 46.4 44.6 93% 30.06 0.0
04 04:35 Calm 10.00 Fair CLR 48.2 44.6 87% 30.06 0.0
04 04:15 Calm 10.00 Fair CLR 48.2 44.6 87% 30.06 0.0
04 03:55 Calm 10.00 Fair CLR 48.2 44.6 87% 30.06 0.0
04 03:35 W 3 10.00 Fair CLR 48.2 44.6 87% 30.05 0.0
04 03:15 Calm 10.00 Fair CLR 48.2 44.6 87% 30.05 0.0
04 02:55 Calm 10.00 Fair CLR 50 46.4 88% 30.05 0.0
04 02:35 Calm 10.00 Fair CLR 50 44.6 82% 30.06 0.0
04 02:15 Calm 10.00 Fair CLR 51.8 44.6 77% 30.06 0.0
04 01:55 Calm 10.00 Fair CLR 51.8 44.6 77% 30.07 0.0
04 01:35 Calm 10.00 Fair CLR 51.8 44.6 77% 30.08 0.0
04 01:15 Calm 10.00 Fair CLR 51.8 46.4 82% 30.07 0.0
04 00:55 Calm 10.00 Fair CLR 51.8 46.4 82% 30.07 0.0
04 00:35 Calm 10.00 Fair CLR 51.8 46.4 82% 30.07 0.0
04 00:15 Calm 10.00 Fair CLR 51.8 46.4 82% 30.07 0.0
03 23:55 Calm 10.00 Fair CLR 53.6 46.4 77% 30.07 0.0
03 23:35 Calm 10.00 Fair CLR 53.6 46.4 77% 30.07 0.0
03 23:15 Calm 10.00 Fair CLR 53.6 46.4 77% 30.06 0.0
03 22:55 Calm 10.00 Fair CLR 55.4 46.4 72% 30.06 0.0
03 22:35 Calm 10.00 Fair CLR 55.4 46.4 72% 30.06 0.0
03 22:15 Calm 10.00 Fair CLR 57.2 44.6 63% 30.05 0.0
03 21:55 Calm 10.00 Fair CLR 59 44.6 59% 30.05 0.0
03 21:35 Calm 10.00 Fair CLR 59 42.8 55% 30.04 0.0
03 21:15 Calm 10.00 Fair CLR 60.8 42.8 52% 30.04 0.0
03 20:55 Calm 10.00 Fair CLR 62.6 42.8 49% 30.03 0.0
03 20:35 Calm 10.00 Fair CLR 64.4 42.8 46% 30.02 0.0
03 20:15 Calm 10.00 Fair CLR 66.2 41 40% 30.02 0.0
03 19:55 Calm 10.00 Fair CLR 68 39.2 35% 30.02 0.0
03 19:35 W 3 10.00 Fair CLR 69.8 35.6 29% 30.02 0.0
03 19:15 W 8 10.00 Fair CLR 71.6 35.6 27% 30.02 0.0
03 18:55 W 6 10.00 Fair CLR 73.4 37.4 27% 30.02 0.0
03 18:35 W 7 G 13 10.00 Fair CLR 73.4 35.6 25% 30.02 0.0
03 18:15 W 8 10.00 Fair CLR 73.4 35.6 25% 30.02 0.0
03 17:55 Calm 10.00 Fair CLR 73.4 35.6 25% 30.03 0.0
03 17:35 Vrbl 5 G 12 10.00 Fair CLR 73.4 35.6 25% 30.03 0.0
03 17:15 W 7 10.00 Fair CLR 73.4 35.6 25% 30.03 0.0
03 16:55 W 9 10.00 Fair CLR 73.4 35.6 25% 30.03 0.0
03 16:35 W 8 G 16 10.00 Fair CLR 73.4 35.6 25% 30.04 0.0
03 16:15 W 6 G 14 10.00 Fair CLR 73.4 35.6 25% 30.04 0.0
03 15:55 Vrbl 3 G 15 10.00 Fair CLR 73.4 37.4 27% 30.05 0.0
03 15:35 W 9 10.00 Fair CLR 73.4 35.6 25% 30.06 0.0
03 15:15 Vrbl 7 G 15 10.00 Fair CLR 73.4 35.6 25% 30.07 0.0
03 14:55 SW 5 G 14 10.00 Fair CLR 71.6 32 23% 30.08 0.0
03 14:35 NW 12 10.00 Fair CLR 73.4 33.8 23% 30.09 0.0
03 14:15 W 12 10.00 Fair CLR 71.6 33.8 25% 30.1 0.0
03 13:55 W 9 G 16 10.00 Fair CLR 69.8 35.6 29% 30.1 0.0
03 13:35 Vrbl 3 10.00 Fair CLR 69.8 35.6 29% 30.11 0.0
03 13:15 W 8 G 16 10.00 Fair CLR 69.8 37.4 31% 30.12 0.0
03 12:55 Calm 10.00 Fair CLR 69.8 35.6 29% 30.12 0.0
03 12:35 Vrbl 7 G 15 10.00 Fair CLR 68 35.6 30% 30.13 0.0
03 12:15 W 10 10.00 Fair CLR 68 33.8 28% 30.14 0.0
03 11:55 W 9 10.00 Fair CLR 68 37.4 33% 30.14 0.0
03 11:35 NW 7 10.00 Fair CLR 64.4 39.2 40% 30.14 0.0
03 11:15 N 6 10.00 Fair CLR 64.4 41 43% 30.14 0.0
03 10:55 Calm 10.00 Fair CLR 62.6 42.8 49% 30.14 0.0
03 10:35 Calm 10.00 Fair CLR 60.8 41 48% 30.14 0.0
03 10:15 Calm 10.00 Fair CLR 59 42.8 55% 30.14 0.0
03 09:55 N 5 10.00 Fair CLR 60.8 41 48% 30.14 0.0
03 09:35 Vrbl 5 10.00 Fair CLR 57.2 41 55% 30.14 0.0
03 09:15 N 5 10.00 Fair CLR 57.2 42.8 59% 30.13 0.0
03 08:55 NW 3 10.00 Fair CLR 55.4 44.6 67% 30.13 0.0
03 08:35 Calm 10.00 Fair CLR 53.6 46.4 77% 30.12 0.0
03 08:15 Calm 10.00 Fair CLR 51.8 46.4 82% 30.12 0.0
03 07:55 Calm 10.00 Fair CLR 48.2 46.4 94% 30.11 0.0
03 07:35 Calm 10.00 Fair CLR 46.4 44.6 93% 30.1 0.0
03 07:15 Calm 10.00 Fair CLR 44.6 44.6 100% 30.1 0.0
03 06:35 Calm 10.00 Fair CLR 44.6 44.6 100% 30.09 0.0
03 06:15 Calm 10.00 Fair CLR 44.6 42.8 93% 30.08 0.0
03 05:55 W 5 10.00 Fair CLR 44.6 44.6 100% 43 30.08 0.0
03 05:35 Calm 10.00 Fair CLR 44.6 42.8 93% 30.07 0.0
03 05:15 Calm 10.00 Fair CLR 46.4 44.6 93% 30.07 0.0
03 04:55 W 5 10.00 Fair CLR 46.4 44.6 93% 45 30.07 0.0
03 04:35 Calm 10.00 Fair CLR 46.4 44.6 93% 30.07 0.0
03 04:15 Calm 10.00 Fair CLR 46.4 44.6 93% 30.06 0.0
03 03:55 Calm 10.00 Fair CLR 46.4 42.8 87% 30.05 0.0
03 03:35 W 3 10.00 Fair CLR 46.4 42.8 87% 30.05 0.0
03 03:15 Calm 10.00 Fair CLR 48.2 42.8 82% 30.04 0.0
03 02:55 Calm 10.00 Fair CLR 48.2 44.6 87% 30.03 0.0
03 02:35 Calm 10.00 Fair CLR 48.2 44.6 87% 30.03 0.0
03 02:15 Calm 10.00 Fair CLR 50 42.8 76% 30.03 0.0
03 01:55 Calm 10.00 Fair CLR 50 42.8 76% 30.03 0.0
03 01:35 Calm 10.00 Fair CLR 50 44.6 82% 30.03 0.0
03 01:15 NW 3 10.00 Fair CLR 51.8 44.6 77% 30.03 0.0
03 00:55 Calm 10.00 Fair CLR 50 44.6 82% 30.02 0.0
03 00:35 Calm 10.00 Fair CLR 51.8 44.6 77% 30.02 0.0
03 00:15 Calm 10.00 Fair CLR 51.8 44.6 77% 30.02 0.0
02 23:55 W 3 10.00 Fair CLR 53.6 46.4 77% 30.01 0.0
02 23:35 Calm 10.00 Fair CLR 53.6 44.6 72% 30 0.0
02 23:15 Calm 10.00 Fair CLR 57.2 44.6 63% 30 0.0
02 22:55 Calm 10.00 Fair CLR 60.8 48.2 63% 30 0.0
02 22:35 Vrbl 5 10.00 Fair CLR 60.8 39.2 45% 29.99 0.0
02 22:15 NW 7 10.00 A Few Clouds FEW080 60.8 37.4 42% 29.98 0.0
02 21:55 NW 9 G 17 10.00 Partly Cloudy SCT080 62.6 37.4 39% 29.97 0.0
02 21:35 NW 10 10.00 Mostly Cloudy BKN080 64.4 37.4 37% 29.95 0.0
02 21:15 W 10 10.00 Overcast OVC075 64.4 41 43% 29.94 0.0
02 20:55 W 7 10.00 Mostly Cloudy BKN070 64.4 42.8 46% 29.92 0.0
02 20:35 W 9 G 15 10.00 A Few Clouds FEW070 66.2 41 40% 29.91 0.0
02 20:15 W 8 G 14 10.00 Fair CLR 66.2 41 40% 29.9 0.0
02 19:55 NW 13 G 20 10.00 A Few Clouds FEW070 69.8 41 35% 29.88 0.0
02 19:35 NW 15 G 23 10.00 Partly Cloudy SCT065 69.8 44.6 40% 29.87 0.0
02 19:15 W 10 10.00 Fair CLR 71.6 48.2 44% 29.86 0.0
02 18:55 W 12 10.00 Fair CLR 73.4 48.2 41% 29.85 0.0
02 18:35 W 8 10.00 A Few Clouds FEW060 FEW080 71.6 50 47% 29.85 0.0
02 18:15 NW 5 10.00 Partly Cloudy FEW055 FEW070 SCT080 71.6 51.8 50% 29.85 0.0
02 17:35 Calm 10.00 A Few Clouds FEW085 71.6 51.8 50% 29.84 0.0
02 17:15 Calm 10.00 Partly Cloudy FEW070 SCT090 71.6 51.8 50% 29.84 0.0
02 16:55 Calm 10.00 Mostly Cloudy SCT070 BKN085 71.6 51.8 50% 29.84 0.0
02 16:35 Vrbl 5 10.00 Partly Cloudy FEW070 SCT085 71.6 51.8 50% 29.85 0.0
02 16:15 N 6 10.00 Mostly Cloudy FEW040 FEW055 BKN065 71.6 51.8 50% 29.85 0.0
02 15:55 Vrbl 5 10.00 Mostly Cloudy FEW050 BKN070 BKN090 69.8 50 50% 29.85 0.0
02 15:35 N 3 10.00 A Few Clouds FEW070 FEW085 FEW100 71.6 51.8 50% 29.85 0.0
02 15:15 Vrbl 6 10.00 Mostly Cloudy SCT070 BKN085 BKN100 69.8 51.8 53% 29.86 0.0
02 14:55 Vrbl 5 10.00 Mostly Cloudy FEW070 SCT080 BKN100 69.8 53.6 57% 29.87 0.0
02 14:35 N 5 10.00 Mostly Cloudy SCT070 BKN085 69.8 53.6 57% 29.87 0.0
02 14:15 Vrbl 3 10.00 Mostly Cloudy FEW025 BKN065 BKN100 68 53.6 60% 29.88 0.0
02 13:55 E 5 10.00 Mostly Cloudy FEW034 SCT050 BKN060 68 55.4 64% 29.88 0.0
02 13:35 E 5 10.00 Overcast SCT034 SCT039 OVC090 66.2 55.4 68% 29.89 0.0
02 13:15 Calm 10.00 Overcast OVC085 64.4 55.4 73% 29.89 0.0
02 12:55 Vrbl 5 10.00 Overcast SCT017 SCT025 OVC080 64.4 57.2 78% 29.9 0.0
02 12:35 N 6 10.00 Overcast SCT017 SCT026 OVC075 62.6 55.4 77% 29.9 0.0
02 12:15 Vrbl 5 10.00 Overcast FEW015 OVC075 62.6 57.2 83% 29.9 0.0
02 11:55 Calm 10.00 Overcast OVC075 60.8 55.4 83% 29.89 0.0
02 11:35 Calm 10.00 Mostly Cloudy BKN075 BKN090 60.8 57.2 88% 29.88 0.0
02 11:15 W 5 9.00 Light Rain SCT075 60.8 59 94% 29.9 0.0
02 10:55 NW 5 10.00 Light Rain SCT070 60.8 59 94% 29.9 0.0
02 10:35 Calm 9.00 Light Rain FEW007 OVC070 59 57.2 94% 29.89 0.0
02 10:15 W 3 10.00 Overcast BKN075 OVC085 59 57.2 94% 29.91 0.0
02 09:55 Calm 10.00 Mostly Cloudy FEW004 BKN070 BKN085 59 57.2 94% 29.87 0.0
02 09:35 Calm 9.00 Light Drizzle SCT003 BKN070 59 57.2 94% 29.89 0.0
02 09:15 Calm 5.00 Light Rain Fog/Mist SCT002 OVC070 57.2 57.2 100% 29.9 0.0
02 08:55 Calm 9.00 Overcast OVC070 57.2 57.2 100% 29.91 0.0
02 08:35 Calm 10.00 Light Rain OVC065 57.2 57.2 100% 29.89 0.0
02 08:15 W 3 8.00 Light Rain BKN065 BKN080 BKN090 57.2 57.2 100% 29.9 0.0
02 07:55 Calm 8.00 Light Drizzle SCT060 SCT095 BKN110 57.2 55.4 94% 29.86 0.0
02 07:35 Calm 3.00 Light Rain Fog/Mist BKN055 OVC070 55.4 55.4 100% 29.88 0.0
02 07:15 W 5 5.00 Light Rain Fog/Mist BKN050 OVC070 55.4 55.4 100% 29.89 0.0
02 06:55 Vrbl 3 9.00 Light Rain FEW002 OVC050 55.4 55.4 100% 29.88 0.0
02 06:35 NW 5 10.00 Light Drizzle BKN002 OVC055 55.4 55.4 100% 29.86 0.0
02 06:15 Calm 8.00 Light Rain FEW002 OVC055 55.4 53.6 94% 29.86 0.0
02 05:55 Calm 10.00 Overcast SCT003 OVC055 55.4 53.6 94% 29.86 0.0
02 05:35 Calm 7.00 Light Rain BKN003 BKN041 OVC110 55.4 55.4 100% 29.86 0.0
02 05:15 Calm 5.00 Light Rain Fog/Mist FEW003 FEW041 SCT075 55.4 55.4 100% 29.87 0.0
02 04:55 Calm 4.00 Light Rain Fog/Mist FEW075 FEW110 55.4 55.4 100% 29.88 0.0
02 04:35 Calm 4.00 Light Rain Fog/Mist FEW039 FEW055 FEW065 55.4 53.6 94% 29.88 0.0
02 04:15 Calm 5.00 Light Rain Fog/Mist FEW060 FEW070 55.4 53.6 94% 29.88 0.0
02 03:55 Calm 7.00 Light Rain FEW041 SCT060 BKN070 55.4 55.4 100% 29.87 0.0
02 03:15 Calm 2.50 Rain Fog/Mist BKN055 55.4 53.6 94% 29.89 0.0
02 02:55 Calm 3.00 Light Rain Fog/Mist SCT055 BKN065 BKN080 57.2 55.4 94% 29.9 0.0
02 02:35 Calm 4.00 Light Rain Fog/Mist BKN055 OVC065 57.2 55.4 94% 29.91 0.0
02 02:15 Calm 5.00 Light Rain Fog/Mist BKN060 BKN075 57.2 57.2 100% 29.92 0.0
02 01:55 Calm 6.00 Light Rain Fog/Mist FEW038 FEW044 SCT075 57.2 57.2 100% 29.91 0.0
02 01:35 Calm 4.00 Light Rain Fog/Mist FEW041 SCT075 57.2 57.2 100% 29.9 0.0
02 01:15 S 3 5.00 Light Rain Fog/Mist CLR 57.2 57.2 100% 29.91 0.0
02 00:55 Calm 8.00 Light Rain FEW075 57.2 57.2 100% 29.91 0.0
02 00:35 Calm 9.00 Light Rain FEW055 SCT075 SCT110 59 57.2 94% 29.92 0.0
02 00:15 Calm 10.00 Light Rain FEW055 BKN075 BKN110 59 57.2 94% 29.93 0.0
01 23:55 Calm 10.00 Light Rain SCT060 BKN075 59 55.4 88% 29.93 0.0
01 23:35 W 5 10.00 Light Rain BKN060 BKN075 60.8 55.4 83% 29.92 0.0
01 23:15 Calm 10.00 Overcast SCT055 OVC070 62.6 53.6 73% 29.91 0.0
01 22:55 NW 3 10.00 Light Rain SCT060 OVC070 62.6 53.6 73% 29.91 0.0
01 22:35 W 6 10.00 Overcast FEW065 BKN075 OVC110 62.6 53.6 73% 29.92 0.0
01 22:15 W 5 10.00 Overcast FEW070 FEW080 OVC110 62.6 53.6 73% 29.92 0.0
01 21:55 NW 5 10.00 Overcast BKN070 BKN080 OVC120 62.6 53.6 73% 29.9 0.0
01 21:35 Vrbl 5 10.00 Mostly Cloudy SCT075 SCT095 BKN120 62.6 53.6 73% 29.9 0.0
01 21:15 NW 5 10.00 Partly Cloudy FEW080 SCT120 62.6 55.4 77% 29.9 0.0
01 20:55 W 5 10.00 Mostly Cloudy FEW065 SCT075 BKN090 64.4 53.6 68% 29.89 0.0
01 20:35 NW 3 10.00 Mostly Cloudy FEW065 SCT080 BKN090 64.4 51.8 64% 29.88 0.0
01 20:15 NW 5 10.00 Overcast FEW065 FEW080 OVC095 64.4 51.8 64% 29.88 0.0
01 19:55 W 5 10.00 Overcast FEW065 OVC100 66.2 53.6 64% 29.88 0.0
01 19:35 NW 5 10.00 Overcast OVC100 66.2 51.8 60% 29.88 0.0
01 19:15 W 6 10.00 Overcast OVC100 66.2 51.8 60% 29.88 0.0
01 18:55 Calm 10.00 Mostly Cloudy BKN100 68 50 53% 29.87 0.0
01 18:35 NW 5 10.00 Overcast OVC100 68 50 53% 29.87 0.0
01 18:15 N 6 10.00 Partly Cloudy SCT100 68 50 53% 29.87 0.0
01 17:55 Calm 10.00 Partly Cloudy FEW075 FEW090 SCT110 68 51.8 56% 29.88 0.0
01 17:35 NW 6 10.00 Mostly Cloudy BKN110 68 51.8 56% 29.89 0.0
01 17:15 NW 7 10.00 Mostly Cloudy BKN100 68 51.8 56% 29.9 0.0
01 16:55 Vrbl 6 10.00 Overcast OVC100 68 51.8 56% 29.89 0.0
01 16:35 NW 7 10.00 Mostly Cloudy BKN100 68 51.8 56% 29.9 0.0
01 16:15 NW 5 10.00 Light Rain BKN100 68 51.8 56% 29.9 0.0
01 15:55 NW 3 10.00 Mostly Cloudy BKN110 68 50 53% 29.9 0.0
01 15:35 Vrbl 6 10.00 Mostly Cloudy BKN110 69.8 51.8 53% 29.91 0.0
01 15:15 NW 7 10.00 Overcast OVC110 68 51.8 56% 29.91 0.0
01 14:55 Vrbl 5 10.00 Light Drizzle FEW070 FEW090 BKN110 68 51.8 56% 29.92 0.0
01 14:35 N 5 10.00 Light Rain FEW070 FEW095 SCT120 66.2 51.8 60% 29.93 0.0
01 14:15 Vrbl 5 10.00 Mostly Cloudy BKN120 68 50 53% 29.93 0.0
01 13:55 Vrbl 5 10.00 Partly Cloudy SCT120 68 51.8 56% 29.92 0.0
01 13:35 Vrbl 7 10.00 Mostly Cloudy BKN120 68 50 53% 29.93 0.0
01 13:15 N 5 10.00 Mostly Cloudy BKN120 66.2 50 56% 29.93 0.0
01 12:55 Vrbl 5 10.00 Mostly Cloudy BKN110 68 50 53% 29.93 0.0
01 12:35 E 6 10.00 Mostly Cloudy BKN110 68 50 53% 29.93 0.0
01 12:15 Vrbl 6 G 12 10.00 Partly Cloudy SCT110 68 50 53% 29.93 0.0
01 11:55 E 6 10.00 A Few Clouds FEW110 66.2 48.2 52% 29.93 0.0
01 11:35 NE 7 10.00 Mostly Cloudy SCT018 BKN110 66.2 48.2 52% 29.93 0.0
01 11:15 NE 6 10.00 Overcast OVC110 64.4 48.2 56% 29.94 0.0
01 10:55 N 6 10.00 Overcast OVC100 64.4 48.2 56% 29.94 0.0
Date Time (edt) Wind (mph) Vis. (mi.) Weather Sky Cond. Air Dwpt Max. Min. Relative Humidity Wind Chill (°F) Heat Index (°F) altimeter (in) sea level (mb) 1 hr 3 hr 6 hr
6 hour
Temperature (ºF) Pressure Precipitation (in)